Terminal Aerodrome Forecast
Issued by NWS Binghamton, NY

Home | Current Version | Previous Version | Text Only | Print | Product List | Glossary On
Versions: 1 2 3 4 5 6 7 8 9 10 11 12 13 14 15 16 17 18 19 20 21 22 23
000
FTUS41 KBGM 251123
TAFBGM
TAF
KBGM 251123Z 2512/2612 06005KT 3SM -RA BR BKN015 BKN040
      TEMPO 2512/2516 1/2SM -RA FG BKN004
     FM251600 VRB05KT 5SM -RA BR OVC008
     FM260000 09005KT 5SM BR OVC008=

USA.gov is the U.S. government's official web portal to all federal, state and local government web resources and services.